sensor_id;sensor_type;location;lat;lon;timestamp;P1;durP1;ratioP1;P2;durP2;ratioP2
60873;SDS011;46715;40.642;-7.920;2022-11-15T00:00:34;29.33;;;14.88;;
60873;SDS011;46715;40.642;-7.920;2022-11-15T00:02:54;23.95;;;16.17;;
60873;SDS011;46715;40.642;-7.920;2022-11-15T00:05:13;35.65;;;21.95;;
60873;SDS011;46715;40.642;-7.920;2022-11-15T00:07:32;32.45;;;19.67;;
60873;SDS011;46715;40.642;-7.920;2022-11-15T00:09:51;28.42;;;17.83;;
60873;SDS011;46715;40.642;-7.920;2022-11-15T00:12:11;30.65;;;14.85;;
60873;SDS011;46715;40.642;-7.920;2022-11-15T00:14:30;35.33;;;21.40;;
60873;SDS011;46715;40.642;-7.920;2022-11-15T00:16:49;36.90;;;24.33;;
60873;SDS011;46715;40.642;-7.920;2022-11-15T00:19:08;44.03;;;30.52;;
60873;SDS011;46715;40.642;-7.920;2022-11-15T00:21:28;48.00;;;29.25;;
60873;SDS011;46715;40.642;-7.920;2022-11-15T00:23:47;38.95;;;25.95;;
60873;SDS011;46715;40.642;-7.920;2022-11-15T00:26:07;28.88;;;19.13;;
60873;SDS011;46715;40.642;-7.920;2022-11-15T00:28:31;31.58;;;18.95;;
60873;SDS011;46715;40.642;-7.920;2022-11-15T00:30:50;29.25;;;17.75;;
60873;SDS011;46715;40.642;-7.920;2022-11-15T00:33:09;28.75;;;16.88;;
60873;SDS011;46715;40.642;-7.920;2022-11-15T00:35:33;24.42;;;12.20;;
60873;SDS011;46715;40.642;-7.920;2022-11-15T00:37:53;24.65;;;12.73;;
60873;SDS011;46715;40.642;-7.920;2022-11-15T00:40:13;23.60;;;11.98;;
60873;SDS011;46715;40.642;-7.920;2022-11-15T00:42:32;18.83;;;11.13;;
60873;SDS011;46715;40.642;-7.920;2022-11-15T00:44:52;22.90;;;14.13;;
60873;SDS011;46715;40.642;-7.920;2022-11-15T00:47:11;21.85;;;13.38;;
60873;SDS011;46715;40.642;-7.920;2022-11-15T00:49:31;30.25;;;13.32;;
60873;SDS011;46715;40.642;-7.920;2022-11-15T00:51:50;26.17;;;15.98;;
60873;SDS011;46715;40.642;-7.920;2022-11-15T00:54:09;21.48;;;15.15;;
60873;SDS011;46715;40.642;-7.920;2022-11-15T00:56:28;20.45;;;11.57;;
60873;SDS011;46715;40.642;-7.920;2022-11-15T00:58:48;18.67;;;10.95;;
60873;SDS011;46715;40.642;-7.920;2022-11-15T01:01:08;23.00;;;12.00;;
60873;SDS011;46715;40.642;-7.920;2022-11-15T01:03:32;23.92;;;12.60;;
60873;SDS011;46715;40.642;-7.920;2022-11-15T01:05:52;99.93;;;23.10;;
60873;SDS011;46715;40.642;-7.920;2022-11-15T01:08:12;36.35;;;22.48;;
60873;SDS011;46715;40.642;-7.920;2022-11-15T01:10:33;134.98;;;35.08;;
60873;SDS011;46715;40.642;-7.920;2022-11-15T01:12:52;176.20;;;42.60;;
60873;SDS011;46715;40.642;-7.920;2022-11-15T01:15:11;94.72;;;30.13;;
60873;SDS011;46715;40.642;-7.920;2022-11-15T01:17:31;99.00;;;34.75;;
60873;SDS011;46715;40.642;-7.920;2022-11-15T01:19:50;31.80;;;23.30;;
60873;SDS011;46715;40.642;-7.920;2022-11-15T01:22:10;69.80;;;32.10;;
60873;SDS011;46715;40.642;-7.920;2022-11-15T01:24:29;72.63;;;30.15;;
60873;SDS011;46715;40.642;-7.920;2022-11-15T01:26:49;31.80;;;21.33;;
60873;SDS011;46715;40.642;-7.920;2022-11-15T01:29:09;31.55;;;18.13;;
60873;SDS011;46715;40.642;-7.920;2022-11-15T01:31:28;37.13;;;20.25;;
60873;SDS011;46715;40.642;-7.920;2022-11-15T01:33:48;33.33;;;18.60;;
60873;SDS011;46715;40.642;-7.920;2022-11-15T01:36:10;26.27;;;13.05;;
60873;SDS011;46715;40.642;-7.920;2022-11-15T01:38:31;17.95;;;10.75;;
60873;SDS011;46715;40.642;-7.920;2022-11-15T01:40:50;21.45;;;11.07;;
60873;SDS011;46715;40.642;-7.920;2022-11-15T01:43:24;18.45;;;11.75;;
60873;SDS011;46715;40.642;-7.920;2022-11-15T01:46:06;32.05;;;18.55;;
60873;SDS011;46715;40.642;-7.920;2022-11-15T01:48:46;30.55;;;18.60;;
60873;SDS011;46715;40.642;-7.920;2022-11-15T01:51:07;34.55;;;19.58;;
60873;SDS011;46715;40.642;-7.920;2022-11-15T01:53:30;36.65;;;22.00;;
60873;SDS011;46715;40.642;-7.920;2022-11-15T01:55:52;32.65;;;22.65;;
60873;SDS011;46715;40.642;-7.920;2022-11-15T01:58:13;26.17;;;13.57;;
60873;SDS011;46715;40.642;-7.920;2022-11-15T02:00:32;26.65;;;14.13;;
60873;SDS011;46715;40.642;-7.920;2022-11-15T02:02:51;22.10;;;10.98;;
60873;SDS011;46715;40.642;-7.920;2022-11-15T02:05:11;18.95;;;11.63;;
60873;SDS011;46715;40.642;-7.920;2022-11-15T02:07:31;14.43;;;7.95;;
60873;SDS011;46715;40.642;-7.920;2022-11-15T02:09:53;17.45;;;10.10;;
60873;SDS011;46715;40.642;-7.920;2022-11-15T02:12:15;13.80;;;7.72;;
60873;SDS011;46715;40.642;-7.920;2022-11-15T02:14:39;17.52;;;9.38;;
60873;SDS011;46715;40.642;-7.920;2022-11-15T02:19:40;17.38;;;10.65;;
60873;SDS011;46715;40.642;-7.920;2022-11-15T02:33:43;16.55;;;7.80;;
60873;SDS011;46715;40.642;-7.920;2022-11-15T02:36:41;15.27;;;7.93;;
60873;SDS011;46715;40.642;-7.920;2022-11-15T02:38:59;11.10;;;5.55;;
60873;SDS011;46715;40.642;-7.920;2022-11-15T02:41:38;10.30;;;5.65;;
60873;SDS011;46715;40.642;-7.920;2022-11-15T02:44:17;10.15;;;5.70;;
60873;SDS011;46715;40.642;-7.920;2022-11-15T02:47:00;12.15;;;6.30;;
60873;SDS011;46715;40.642;-7.920;2022-11-15T02:49:33;13.45;;;6.63;;
60873;SDS011;46715;40.642;-7.920;2022-11-15T02:51:56;9.70;;;6.30;;
60873;SDS011;46715;40.642;-7.920;2022-11-15T02:54:22;13.63;;;6.70;;
60873;SDS011;46715;40.642;-7.920;2022-11-15T02:56:43;13.10;;;5.60;;
60873;SDS011;46715;40.642;-7.920;2022-11-15T03:07:22;14.25;;;6.43;;
60873;SDS011;46715;40.642;-7.920;2022-11-15T03:09:39;10.95;;;5.20;;
60873;SDS011;46715;40.642;-7.920;2022-11-15T03:12:12;12.98;;;5.43;;
60873;SDS011;46715;40.642;-7.920;2022-11-15T03:17:38;19.52;;;9.82;;
60873;SDS011;46715;40.642;-7.920;2022-11-15T03:20:06;15.32;;;7.80;;
60873;SDS011;46715;40.642;-7.920;2022-11-15T03:24:50;14.85;;;8.57;;
60873;SDS011;46715;40.642;-7.920;2022-11-15T03:27:12;15.27;;;9.05;;
60873;SDS011;46715;40.642;-7.920;2022-11-15T03:29:37;14.13;;;9.02;;
60873;SDS011;46715;40.642;-7.920;2022-11-15T03:32:02;13.88;;;6.43;;
60873;SDS011;46715;40.642;-7.920;2022-11-15T03:36:49;13.45;;;6.18;;
60873;SDS011;46715;40.642;-7.920;2022-11-15T03:39:10;13.30;;;5.63;;
60873;SDS011;46715;40.642;-7.920;2022-11-15T03:41:36;14.57;;;7.22;;
60873;SDS011;46715;40.642;-7.920;2022-11-15T03:46:25;16.92;;;5.50;;
60873;SDS011;46715;40.642;-7.920;2022-11-15T03:48:59;15.77;;;5.90;;
60873;SDS011;46715;40.642;-7.920;2022-11-15T03:51:24;12.00;;;5.30;;
60873;SDS011;46715;40.642;-7.920;2022-11-15T03:53:44;13.57;;;5.35;;
60873;SDS011;46715;40.642;-7.920;2022-11-15T03:56:05;13.90;;;5.85;;
60873;SDS011;46715;40.642;-7.920;2022-11-15T03:58:24;13.38;;;7.03;;
60873;SDS011;46715;40.642;-7.920;2022-11-15T04:00:43;15.77;;;6.90;;
60873;SDS011;46715;40.642;-7.920;2022-11-15T04:03:02;13.70;;;6.85;;
60873;SDS011;46715;40.642;-7.920;2022-11-15T04:05:22;15.75;;;6.72;;
60873;SDS011;46715;40.642;-7.920;2022-11-15T04:07:42;17.27;;;7.20;;
60873;SDS011;46715;40.642;-7.920;2022-11-15T04:10:01;13.88;;;6.15;;
60873;SDS011;46715;40.642;-7.920;2022-11-15T04:12:24;13.45;;;6.28;;
60873;SDS011;46715;40.642;-7.920;2022-11-15T04:14:49;14.98;;;5.38;;
60873;SDS011;46715;40.642;-7.920;2022-11-15T04:17:25;17.02;;;5.75;;
60873;SDS011;46715;40.642;-7.920;2022-11-15T04:19:45;9.18;;;4.57;;
60873;SDS011;46715;40.642;-7.920;2022-11-15T04:22:23;6.53;;;3.50;;
60873;SDS011;46715;40.642;-7.920;2022-11-15T04:25:02;7.72;;;4.10;;
60873;SDS011;46715;40.642;-7.920;2022-11-15T04:27:21;8.73;;;3.50;;
60873;SDS011;46715;40.642;-7.920;2022-11-15T04:29:41;9.02;;;2.90;;
60873;SDS011;46715;40.642;-7.920;2022-11-15T04:32:01;8.27;;;3.83;;
60873;SDS011;46715;40.642;-7.920;2022-11-15T04:34:22;15.07;;;5.20;;
60873;SDS011;46715;40.642;-7.920;2022-11-15T04:36:41;10.50;;;3.95;;
60873;SDS011;46715;40.642;-7.920;2022-11-15T04:39:19;15.80;;;4.60;;
60873;SDS011;46715;40.642;-7.920;2022-11-15T04:41:38;8.25;;;3.72;;
60873;SDS011;46715;40.642;-7.920;2022-11-15T04:43:57;6.40;;;3.15;;
60873;SDS011;46715;40.642;-7.920;2022-11-15T04:46:17;9.68;;;2.92;;
60873;SDS011;46715;40.642;-7.920;2022-11-15T04:48:36;7.00;;;2.75;;
60873;SDS011;46715;40.642;-7.920;2022-11-15T04:50:55;10.30;;;2.88;;
60873;SDS011;46715;40.642;-7.920;2022-11-15T04:53:15;4.82;;;2.53;;
60873;SDS011;46715;40.642;-7.920;2022-11-15T04:55:34;6.60;;;2.70;;
60873;SDS011;46715;40.642;-7.920;2022-11-15T04:57:58;5.65;;;2.08;;
60873;SDS011;46715;40.642;-7.920;2022-11-15T05:00:18;5.60;;;2.60;;
60873;SDS011;46715;40.642;-7.920;2022-11-15T05:02:37;8.10;;;2.67;;
60873;SDS011;46715;40.642;-7.920;2022-11-15T05:05:15;4.53;;;2.70;;
60873;SDS011;46715;40.642;-7.920;2022-11-15T05:07:35;8.60;;;3.88;;
60873;SDS011;46715;40.642;-7.920;2022-11-15T05:09:54;11.00;;;4.68;;
60873;SDS011;46715;40.642;-7.920;2022-11-15T05:12:14;13.60;;;5.90;;
60873;SDS011;46715;40.642;-7.920;2022-11-15T05:14:33;21.63;;;8.90;;
60873;SDS011;46715;40.642;-7.920;2022-11-15T05:16:52;19.00;;;9.02;;
60873;SDS011;46715;40.642;-7.920;2022-11-15T05:19:12;13.57;;;4.93;;
60873;SDS011;46715;40.642;-7.920;2022-11-15T05:21:31;13.13;;;5.05;;
60873;SDS011;46715;40.642;-7.920;2022-11-15T05:23:52;12.38;;;4.90;;
60873;SDS011;46715;40.642;-7.920;2022-11-15T05:26:11;17.45;;;5.45;;
60873;SDS011;46715;40.642;-7.920;2022-11-15T05:28:34;16.38;;;4.40;;
60873;SDS011;46715;40.642;-7.920;2022-11-15T05:31:05;13.00;;;4.30;;
60873;SDS011;46715;40.642;-7.920;2022-11-15T05:33:26;13.98;;;4.22;;
60873;SDS011;46715;40.642;-7.920;2022-11-15T05:35:50;7.10;;;3.33;;
60873;SDS011;46715;40.642;-7.920;2022-11-15T05:38:14;12.15;;;2.95;;
60873;SDS011;46715;40.642;-7.920;2022-11-15T05:40:34;7.38;;;2.88;;
60873;SDS011;46715;40.642;-7.920;2022-11-15T05:42:54;11.20;;;3.30;;
60873;SDS011;46715;40.642;-7.920;2022-11-15T05:45:14;11.82;;;3.47;;
60873;SDS011;46715;40.642;-7.920;2022-11-15T05:47:33;11.00;;;3.72;;
60873;SDS011;46715;40.642;-7.920;2022-11-15T05:49:55;12.43;;;3.50;;
60873;SDS011;46715;40.642;-7.920;2022-11-15T05:52:17;11.52;;;4.82;;
60873;SDS011;46715;40.642;-7.920;2022-11-15T05:54:39;12.27;;;4.68;;
60873;SDS011;46715;40.642;-7.920;2022-11-15T05:56:59;16.55;;;5.82;;
60873;SDS011;46715;40.642;-7.920;2022-11-15T05:59:18;7.90;;;3.75;;
60873;SDS011;46715;40.642;-7.920;2022-11-15T06:01:38;10.35;;;3.40;;
60873;SDS011;46715;40.642;-7.920;2022-11-15T06:03:58;13.18;;;3.40;;
60873;SDS011;46715;40.642;-7.920;2022-11-15T06:06:18;13.30;;;3.33;;
60873;SDS011;46715;40.642;-7.920;2022-11-15T06:08:37;9.48;;;3.40;;
60873;SDS011;46715;40.642;-7.920;2022-11-15T06:11:02;14.63;;;3.38;;
60873;SDS011;46715;40.642;-7.920;2022-11-15T06:13:25;8.60;;;3.00;;
60873;SDS011;46715;40.642;-7.920;2022-11-15T06:15:44;13.93;;;3.53;;
60873;SDS011;46715;40.642;-7.920;2022-11-15T06:18:04;11.57;;;3.33;;
60873;SDS011;46715;40.642;-7.920;2022-11-15T06:22:46;7.53;;;3.25;;
60873;SDS011;46715;40.642;-7.920;2022-11-15T06:25:06;14.50;;;3.78;;
60873;SDS011;46715;40.642;-7.920;2022-11-15T06:27:25;7.65;;;2.92;;
60873;SDS011;46715;40.642;-7.920;2022-11-15T06:29:45;9.63;;;3.08;;
60873;SDS011;46715;40.642;-7.920;2022-11-15T06:32:04;10.73;;;3.08;;
60873;SDS011;46715;40.642;-7.920;2022-11-15T06:34:24;6.55;;;2.42;;
60873;SDS011;46715;40.642;-7.920;2022-11-15T06:36:43;10.27;;;3.00;;
60873;SDS011;46715;40.642;-7.920;2022-11-15T06:39:04;9.52;;;3.22;;
60873;SDS011;46715;40.642;-7.920;2022-11-15T06:41:23;13.70;;;3.60;;
60873;SDS011;46715;40.642;-7.920;2022-11-15T06:43:43;10.15;;;4.35;;
60873;SDS011;46715;40.642;-7.920;2022-11-15T06:46:03;9.55;;;3.78;;
60873;SDS011;46715;40.642;-7.920;2022-11-15T06:48:23;11.32;;;3.63;;
60873;SDS011;46715;40.642;-7.920;2022-11-15T06:50:42;8.25;;;3.50;;
60873;SDS011;46715;40.642;-7.920;2022-11-15T06:53:02;7.05;;;2.95;;
60873;SDS011;46715;40.642;-7.920;2022-11-15T06:55:22;10.98;;;3.10;;
60873;SDS011;46715;40.642;-7.920;2022-11-15T06:57:48;8.60;;;3.33;;
60873;SDS011;46715;40.642;-7.920;2022-11-15T07:00:09;10.43;;;3.22;;
60873;SDS011;46715;40.642;-7.920;2022-11-15T07:02:30;10.75;;;3.90;;
60873;SDS011;46715;40.642;-7.920;2022-11-15T07:04:49;11.02;;;3.55;;
60873;SDS011;46715;40.642;-7.920;2022-11-15T07:07:09;10.18;;;4.07;;
60873;SDS011;46715;40.642;-7.920;2022-11-15T07:09:28;8.65;;;3.58;;
60873;SDS011;46715;40.642;-7.920;2022-11-15T07:11:48;8.93;;;2.88;;
60873;SDS011;46715;40.642;-7.920;2022-11-15T07:14:07;4.85;;;2.88;;
60873;SDS011;46715;40.642;-7.920;2022-11-15T07:16:26;12.98;;;3.80;;
60873;SDS011;46715;40.642;-7.920;2022-11-15T07:18:45;8.63;;;4.10;;
60873;SDS011;46715;40.642;-7.920;2022-11-15T07:21:06;12.73;;;3.97;;
60873;SDS011;46715;40.642;-7.920;2022-11-15T07:23:28;9.35;;;4.40;;
60873;SDS011;46715;40.642;-7.920;2022-11-15T07:25:48;13.57;;;4.55;;
60873;SDS011;46715;40.642;-7.920;2022-11-15T07:28:07;15.45;;;4.70;;
60873;SDS011;46715;40.642;-7.920;2022-11-15T07:30:27;14.77;;;4.13;;
60873;SDS011;46715;40.642;-7.920;2022-11-15T07:32:47;9.90;;;4.35;;
60873;SDS011;46715;40.642;-7.920;2022-11-15T07:35:06;10.20;;;4.53;;
60873;SDS011;46715;40.642;-7.920;2022-11-15T07:37:26;15.75;;;4.60;;
60873;SDS011;46715;40.642;-7.920;2022-11-15T07:39:46;13.23;;;4.65;;
60873;SDS011;46715;40.642;-7.920;2022-11-15T07:42:05;11.82;;;4.05;;
60873;SDS011;46715;40.642;-7.920;2022-11-15T07:44:43;9.80;;;4.00;;
60873;SDS011;46715;40.642;-7.920;2022-11-15T07:47:02;13.70;;;4.45;;
60873;SDS011;46715;40.642;-7.920;2022-11-15T07:49:22;10.73;;;4.00;;
60873;SDS011;46715;40.642;-7.920;2022-11-15T07:51:41;6.45;;;3.45;;
60873;SDS011;46715;40.642;-7.920;2022-11-15T07:54:00;12.98;;;4.10;;
60873;SDS011;46715;40.642;-7.920;2022-11-15T07:56:20;7.25;;;2.95;;
60873;SDS011;46715;40.642;-7.920;2022-11-15T07:58:40;6.40;;;3.00;;
60873;SDS011;46715;40.642;-7.920;2022-11-15T08:01:03;9.85;;;3.05;;
60873;SDS011;46715;40.642;-7.920;2022-11-15T08:03:24;11.55;;;3.42;;
60873;SDS011;46715;40.642;-7.920;2022-11-15T08:05:49;13.43;;;3.80;;
60873;SDS011;46715;40.642;-7.920;2022-11-15T08:08:10;13.55;;;3.45;;
60873;SDS011;46715;40.642;-7.920;2022-11-15T08:10:30;11.77;;;3.35;;
60873;SDS011;46715;40.642;-7.920;2022-11-15T08:12:59;8.35;;;2.72;;
60873;SDS011;46715;40.642;-7.920;2022-11-15T08:15:23;9.95;;;2.75;;
60873;SDS011;46715;40.642;-7.920;2022-11-15T08:17:42;6.93;;;3.17;;
60873;SDS011;46715;40.642;-7.920;2022-11-15T08:20:02;9.65;;;3.00;;
60873;SDS011;46715;40.642;-7.920;2022-11-15T08:22:22;9.40;;;3.00;;
60873;SDS011;46715;40.642;-7.920;2022-11-15T08:24:42;10.13;;;3.20;;
60873;SDS011;46715;40.642;-7.920;2022-11-15T08:27:03;8.65;;;2.85;;
60873;SDS011;46715;40.642;-7.920;2022-11-15T08:29:22;8.55;;;3.17;;
60873;SDS011;46715;40.642;-7.920;2022-11-15T08:31:41;12.77;;;3.08;;
60873;SDS011;46715;40.642;-7.920;2022-11-15T08:34:00;11.57;;;3.53;;
60873;SDS011;46715;40.642;-7.920;2022-11-15T08:36:20;13.52;;;3.05;;
60873;SDS011;46715;40.642;-7.920;2022-11-15T08:38:40;5.90;;;2.63;;
60873;SDS011;46715;40.642;-7.920;2022-11-15T08:41:01;6.57;;;2.72;;
60873;SDS011;46715;40.642;-7.920;2022-11-15T08:43:23;7.63;;;2.50;;
60873;SDS011;46715;40.642;-7.920;2022-11-15T08:45:42;4.35;;;2.58;;
60873;SDS011;46715;40.642;-7.920;2022-11-15T08:48:02;9.23;;;2.80;;
60873;SDS011;46715;40.642;-7.920;2022-11-15T08:50:22;6.63;;;2.00;;
60873;SDS011;46715;40.642;-7.920;2022-11-15T08:52:41;10.07;;;2.40;;
60873;SDS011;46715;40.642;-7.920;2022-11-15T08:55:01;5.65;;;2.70;;
60873;SDS011;46715;40.642;-7.920;2022-11-15T08:57:20;10.93;;;2.15;;
60873;SDS011;46715;40.642;-7.920;2022-11-15T08:59:39;4.97;;;1.70;;
60873;SDS011;46715;40.642;-7.920;2022-11-15T09:01:59;4.55;;;1.88;;
60873;SDS011;46715;40.642;-7.920;2022-11-15T09:04:18;3.42;;;1.27;;
60873;SDS011;46715;40.642;-7.920;2022-11-15T09:06:38;4.53;;;1.35;;
60873;SDS011;46715;40.642;-7.920;2022-11-15T09:08:57;4.75;;;1.50;;
60873;SDS011;46715;40.642;-7.920;2022-11-15T09:11:19;2.42;;;1.30;;
60873;SDS011;46715;40.642;-7.920;2022-11-15T09:13:46;2.55;;;1.20;;
60873;SDS011;46715;40.642;-7.920;2022-11-15T09:16:06;2.97;;;1.35;;
60873;SDS011;46715;40.642;-7.920;2022-11-15T09:18:26;4.20;;;0.93;;
60873;SDS011;46715;40.642;-7.920;2022-11-15T09:20:49;2.40;;;1.20;;
60873;SDS011;46715;40.642;-7.920;2022-11-15T09:23:23;2.80;;;1.45;;
60873;SDS011;46715;40.642;-7.920;2022-11-15T09:25:46;1.52;;;1.13;;
60873;SDS011;46715;40.642;-7.920;2022-11-15T09:28:11;2.45;;;0.90;;
60873;SDS011;46715;40.642;-7.920;2022-11-15T09:30:32;1.85;;;0.88;;
60873;SDS011;46715;40.642;-7.920;2022-11-15T09:32:51;4.95;;;1.10;;
60873;SDS011;46715;40.642;-7.920;2022-11-15T09:35:11;4.05;;;1.10;;
60873;SDS011;46715;40.642;-7.920;2022-11-15T09:37:42;3.78;;;1.15;;
60873;SDS011;46715;40.642;-7.920;2022-11-15T09:40:02;2.33;;;1.10;;
60873;SDS011;46715;40.642;-7.920;2022-11-15T09:48:46;4.40;;;1.30;;
60873;SDS011;46715;40.642;-7.920;2022-11-15T09:51:33;4.22;;;1.15;;
60873;SDS011;46715;40.642;-7.920;2022-11-15T09:55:58;1.83;;;1.13;;
60873;SDS011;46715;40.642;-7.920;2022-11-15T09:58:04;2.03;;;0.93;;
60873;SDS011;46715;40.642;-7.920;2022-11-15T10:05:24;0.88;;;0.70;;
60873;SDS011;46715;40.642;-7.920;2022-11-15T10:10:23;1.73;;;1.02;;
60873;SDS011;46715;40.642;-7.920;2022-11-15T10:12:26;1.63;;;0.88;;
60873;SDS011;46715;40.642;-7.920;2022-11-15T10:14:32;2.35;;;1.02;;
60873;SDS011;46715;40.642;-7.920;2022-11-15T10:19:23;2.50;;;0.93;;
60873;SDS011;46715;40.642;-7.920;2022-11-15T10:24:10;1.67;;;0.90;;
60873;SDS011;46715;40.642;-7.920;2022-11-15T10:26:15;2.88;;;0.80;;
60873;SDS011;46715;40.642;-7.920;2022-11-15T10:28:36;1.55;;;0.70;;
60873;SDS011;46715;40.642;-7.920;2022-11-15T10:30:38;1.63;;;0.70;;
60873;SDS011;46715;40.642;-7.920;2022-11-15T10:33:08;3.08;;;1.73;;
60873;SDS011;46715;40.642;-7.920;2022-11-15T10:36:27;6.88;;;1.85;;
60873;SDS011;46715;40.642;-7.920;2022-11-15T10:38:46;6.40;;;1.25;;
60873;SDS011;46715;40.642;-7.920;2022-11-15T10:40:51;3.90;;;1.00;;
60873;SDS011;46715;40.642;-7.920;2022-11-15T10:43:18;1.63;;;0.75;;
60873;SDS011;46715;40.642;-7.920;2022-11-15T10:45:29;1.77;;;0.63;;
60873;SDS011;46715;40.642;-7.920;2022-11-15T10:47:32;0.88;;;0.73;;
60873;SDS011;46715;40.642;-7.920;2022-11-15T10:49:33;1.15;;;0.80;;
60873;SDS011;46715;40.642;-7.920;2022-11-15T10:51:37;2.00;;;1.30;;
60873;SDS011;46715;40.642;-7.920;2022-11-15T10:53:57;1.67;;;1.20;;
60873;SDS011;46715;40.642;-7.920;2022-11-15T10:56:11;2.28;;;1.50;;
60873;SDS011;46715;40.642;-7.920;2022-11-15T11:00:37;1.65;;;1.08;;
60873;SDS011;46715;40.642;-7.920;2022-11-15T11:03:03;1.80;;;0.93;;
60873;SDS011;46715;40.642;-7.920;2022-11-15T11:07:34;1.77;;;1.13;;
60873;SDS011;46715;40.642;-7.920;2022-11-15T11:09:38;1.50;;;1.00;;
60873;SDS011;46715;40.642;-7.920;2022-11-15T11:11:46;2.03;;;1.15;;
60873;SDS011;46715;40.642;-7.920;2022-11-15T11:13:49;2.38;;;1.10;;
60873;SDS011;46715;40.642;-7.920;2022-11-15T11:16:16;1.70;;;1.20;;
60873;SDS011;46715;40.642;-7.920;2022-11-15T11:18:18;1.85;;;0.90;;
60873;SDS011;46715;40.642;-7.920;2022-11-15T11:20:37;3.97;;;1.13;;
60873;SDS011;46715;40.642;-7.920;2022-11-15T11:23:20;1.98;;;0.50;;
60873;SDS011;46715;40.642;-7.920;2022-11-15T11:26:11;0.40;;;0.40;;
60873;SDS011;46715;40.642;-7.920;2022-11-15T11:28:14;1.08;;;0.77;;
60873;SDS011;46715;40.642;-7.920;2022-11-15T11:34:24;2.92;;;0.85;;
60873;SDS011;46715;40.642;-7.920;2022-11-15T11:36:39;1.92;;;0.73;;
60873;SDS011;46715;40.642;-7.920;2022-11-15T11:39:01;0.90;;;0.73;;
60873;SDS011;46715;40.642;-7.920;2022-11-15T11:43:34;2.35;;;0.77;;
60873;SDS011;46715;40.642;-7.920;2022-11-15T11:45:59;0.88;;;0.50;;
60873;SDS011;46715;40.642;-7.920;2022-11-15T11:50:26;1.30;;;0.80;;
60873;SDS011;46715;40.642;-7.920;2022-11-15T11:52:33;7.25;;;1.15;;
60873;SDS011;46715;40.642;-7.920;2022-11-15T11:57:07;1.73;;;1.15;;
60873;SDS011;46715;40.642;-7.920;2022-11-15T12:02:00;1.50;;;0.90;;
60873;SDS011;46715;40.642;-7.920;2022-11-15T12:04:16;1.77;;;0.75;;
60873;SDS011;46715;40.642;-7.920;2022-11-15T12:15:16;1.55;;;0.88;;
60873;SDS011;46715;40.642;-7.920;2022-11-15T12:20:32;1.52;;;0.95;;
60873;SDS011;46715;40.642;-7.920;2022-11-15T12:25:18;3.25;;;1.00;;
60873;SDS011;46715;40.642;-7.920;2022-11-15T12:27:32;1.92;;;1.23;;
60873;SDS011;46715;40.642;-7.920;2022-11-15T12:29:43;2.10;;;1.20;;
60873;SDS011;46715;40.642;-7.920;2022-11-15T12:31:53;3.80;;;1.75;;
60873;SDS011;46715;40.642;-7.920;2022-11-15T12:34:12;1.95;;;0.80;;
60873;SDS011;46715;40.642;-7.920;2022-11-15T12:38:49;2.00;;;1.00;;
60873;SDS011;46715;40.642;-7.920;2022-11-15T12:41:12;1.45;;;0.93;;
60873;SDS011;46715;40.642;-7.920;2022-11-15T12:45:54;1.52;;;1.02;;
60873;SDS011;46715;40.642;-7.920;2022-11-15T12:55:31;3.72;;;1.00;;
60873;SDS011;46715;40.642;-7.920;2022-11-15T12:57:35;4.47;;;0.80;;
60873;SDS011;46715;40.642;-7.920;2022-11-15T13:02:18;1.90;;;0.98;;
60873;SDS011;46715;40.642;-7.920;2022-11-15T13:04:33;1.45;;;0.85;;
60873;SDS011;46715;40.642;-7.920;2022-11-15T13:06:37;1.40;;;0.80;;
60873;SDS011;46715;40.642;-7.920;2022-11-15T13:08:59;3.28;;;0.75;;
60873;SDS011;46715;40.642;-7.920;2022-11-15T13:11:14;1.23;;;0.60;;
60873;SDS011;46715;40.642;-7.920;2022-11-15T13:13:42;0.43;;;0.40;;
60873;SDS011;46715;40.642;-7.920;2022-11-15T13:17:54;1.50;;;0.60;;
60873;SDS011;46715;40.642;-7.920;2022-11-15T13:22:09;2.50;;;1.48;;
60873;SDS011;46715;40.642;-7.920;2022-11-15T13:24:29;2.03;;;0.80;;
60873;SDS011;46715;40.642;-7.920;2022-11-15T13:26:30;0.52;;;0.50;;
60873;SDS011;46715;40.642;-7.920;2022-11-15T13:32:55;0.60;;;0.50;;
60873;SDS011;46715;40.642;-7.920;2022-11-15T13:35:06;2.50;;;0.80;;
60873;SDS011;46715;40.642;-7.920;2022-11-15T13:39:32;3.45;;;0.65;;
60873;SDS011;46715;40.642;-7.920;2022-11-15T13:41:47;3.13;;;0.75;;
60873;SDS011;46715;40.642;-7.920;2022-11-15T13:43:50;0.85;;;0.70;;
60873;SDS011;46715;40.642;-7.920;2022-11-15T13:46:09;2.00;;;0.82;;
60873;SDS011;46715;40.642;-7.920;2022-11-15T13:48:14;1.55;;;1.10;;
60873;SDS011;46715;40.642;-7.920;2022-11-15T13:50:21;0.77;;;0.65;;
60873;SDS011;46715;40.642;-7.920;2022-11-15T13:52:34;1.50;;;0.80;;
60873;SDS011;46715;40.642;-7.920;2022-11-15T13:57:03;2.08;;;0.70;;
60873;SDS011;46715;40.642;-7.920;2022-11-15T14:01:30;3.55;;;1.13;;
60873;SDS011;46715;40.642;-7.920;2022-11-15T14:05:41;4.18;;;1.42;;
60873;SDS011;46715;40.642;-7.920;2022-11-15T14:07:56;5.22;;;1.30;;
60873;SDS011;46715;40.642;-7.920;2022-11-15T14:10:15;3.95;;;1.10;;
60873;SDS011;46715;40.642;-7.920;2022-11-15T14:14:32;7.57;;;1.40;;
60873;SDS011;46715;40.642;-7.920;2022-11-15T14:16:34;2.70;;;1.50;;
60873;SDS011;46715;40.642;-7.920;2022-11-15T14:18:47;7.07;;;1.50;;
60873;SDS011;46715;40.642;-7.920;2022-11-15T14:20:49;3.80;;;1.27;;
60873;SDS011;46715;40.642;-7.920;2022-11-15T14:25:24;2.78;;;1.30;;
60873;SDS011;46715;40.642;-7.920;2022-11-15T14:27:30;4.13;;;1.10;;
60873;SDS011;46715;40.642;-7.920;2022-11-15T14:29:55;5.20;;;1.45;;
60873;SDS011;46715;40.642;-7.920;2022-11-15T14:32:23;4.50;;;1.30;;
60873;SDS011;46715;40.642;-7.920;2022-11-15T14:34:36;5.57;;;1.75;;
60873;SDS011;46715;40.642;-7.920;2022-11-15T14:36:49;5.15;;;1.55;;
60873;SDS011;46715;40.642;-7.920;2022-11-15T14:38:58;3.88;;;1.20;;
60873;SDS011;46715;40.642;-7.920;2022-11-15T14:40:59;7.28;;;1.35;;
60873;SDS011;46715;40.642;-7.920;2022-11-15T14:43:00;4.93;;;1.30;;
60873;SDS011;46715;40.642;-7.920;2022-11-15T14:45:01;7.53;;;1.70;;
60873;SDS011;46715;40.642;-7.920;2022-11-15T14:47:06;4.65;;;1.73;;
60873;SDS011;46715;40.642;-7.920;2022-11-15T14:49:06;6.78;;;1.23;;
60873;SDS011;46715;40.642;-7.920;2022-11-15T14:51:11;5.40;;;1.58;;
60873;SDS011;46715;40.642;-7.920;2022-11-15T14:53:17;4.90;;;1.23;;
60873;SDS011;46715;40.642;-7.920;2022-11-15T14:55:20;4.22;;;1.40;;
60873;SDS011;46715;40.642;-7.920;2022-11-15T14:57:24;6.80;;;1.75;;
60873;SDS011;46715;40.642;-7.920;2022-11-15T14:59:25;13.95;;;1.80;;
60873;SDS011;46715;40.642;-7.920;2022-11-15T15:01:26;4.47;;;1.30;;
60873;SDS011;46715;40.642;-7.920;2022-11-15T15:03:27;8.90;;;1.48;;
60873;SDS011;46715;40.642;-7.920;2022-11-15T15:05:35;3.38;;;1.33;;
60873;SDS011;46715;40.642;-7.920;2022-11-15T15:07:38;6.05;;;1.67;;
60873;SDS011;46715;40.642;-7.920;2022-11-15T15:09:39;4.47;;;1.70;;
60873;SDS011;46715;40.642;-7.920;2022-11-15T15:11:40;4.32;;;1.38;;
60873;SDS011;46715;40.642;-7.920;2022-11-15T15:13:40;4.83;;;1.10;;
60873;SDS011;46715;40.642;-7.920;2022-11-15T15:15:41;6.13;;;1.15;;
60873;SDS011;46715;40.642;-7.920;2022-11-15T15:17:42;5.57;;;1.23;;
60873;SDS011;46715;40.642;-7.920;2022-11-15T15:19:43;5.35;;;1.20;;
60873;SDS011;46715;40.642;-7.920;2022-11-15T15:21:44;8.27;;;1.50;;
60873;SDS011;46715;40.642;-7.920;2022-11-15T15:23:48;8.07;;;1.77;;
60873;SDS011;46715;40.642;-7.920;2022-11-15T15:25:50;4.50;;;1.50;;
60873;SDS011;46715;40.642;-7.920;2022-11-15T15:29:52;5.70;;;1.70;;
60873;SDS011;46715;40.642;-7.920;2022-11-15T15:31:53;6.73;;;2.17;;
60873;SDS011;46715;40.642;-7.920;2022-11-15T15:33:54;3.00;;;1.47;;
60873;SDS011;46715;40.642;-7.920;2022-11-15T15:40:13;6.50;;;1.73;;
60873;SDS011;46715;40.642;-7.920;2022-11-15T15:42:29;7.05;;;2.10;;
60873;SDS011;46715;40.642;-7.920;2022-11-15T15:44:31;7.32;;;2.42;;